<?xml version="1.0" encoding="UTF-8" standalone="no" ?>
<gpx xmlns="http://www.topografix.com/GPX/1/1" xmlns:xsi="http://www.w3.org/2001/XMLSchema-instance" xsi:schemaLocation="http://www.topografix.com/GPX/1/1 http://www.topografix.com/GPX/1/1/gpx.xsd" version="1.1" creator="VisuGPX - https://www.visugpx.com">
  <metadata>
    <name>RANDO-La Roche-des-Arnauds</name>
  </metadata>
  <trk>
    <name><![CDATA[La Roche-des-Arnauds Randonnée_1]]></name>
    <extensions>
      <line xmlns="http://www.topografix.com/GPX/gpx_style/0/2">
        <color>0000FF</color>
        <opacity>1</opacity>
        <width>4</width>
      </line>
    </extensions>
    <trkseg>
      <trkpt lat="44.56264" lon="5.95202">
        <ele>928.1</ele>
      </trkpt>
      <trkpt lat="44.56264" lon="5.95235">
        <ele>928.9</ele>
        <time>2026-08-30T08:04:37Z</time>
      </trkpt>
      <trkpt lat="44.56265" lon="5.95265">
        <ele>929.8</ele>
        <time>2026-08-30T08:05:58Z</time>
      </trkpt>
      <trkpt lat="44.56265" lon="5.95284">
        <ele>930.2</ele>
        <time>2026-08-30T08:06:11Z</time>
      </trkpt>
      <trkpt lat="44.56266" lon="5.95306">
        <ele>931</ele>
        <time>2026-08-30T08:06:23Z</time>
      </trkpt>
      <trkpt lat="44.56267" lon="5.95324">
        <ele>931.7</ele>
        <time>2026-08-30T08:06:33Z</time>
      </trkpt>
      <trkpt lat="44.56268" lon="5.95338">
        <ele>932</ele>
        <time>2026-08-30T08:06:42Z</time>
      </trkpt>
      <trkpt lat="44.56268" lon="5.95351">
        <ele>932</ele>
        <time>2026-08-30T08:06:56Z</time>
      </trkpt>
      <trkpt lat="44.56269" lon="5.95368">
        <ele>932</ele>
        <time>2026-08-30T08:07:05Z</time>
      </trkpt>
      <trkpt lat="44.56269" lon="5.95385">
        <ele>932</ele>
        <time>2026-08-30T08:07:18Z</time>
      </trkpt>
      <trkpt lat="44.5627" lon="5.95395">
        <ele>931.8</ele>
        <time>2026-08-30T08:07:22Z</time>
      </trkpt>
      <trkpt lat="44.56283" lon="5.95391">
        <ele>898.2</ele>
        <time>2026-08-30T08:07:32Z</time>
      </trkpt>
      <trkpt lat="44.56297" lon="5.95386">
        <ele>932</ele>
        <time>2026-08-30T08:07:51Z</time>
      </trkpt>
      <trkpt lat="44.56307" lon="5.95383">
        <ele>932</ele>
      </trkpt>
      <trkpt lat="44.56323" lon="5.95377">
        <ele>932</ele>
        <time>2026-08-30T08:08:16Z</time>
      </trkpt>
      <trkpt lat="44.5634" lon="5.95371">
        <ele>932.2</ele>
      </trkpt>
      <trkpt lat="44.56353" lon="5.95368">
        <ele>932.7</ele>
      </trkpt>
      <trkpt lat="44.56356" lon="5.95365">
        <ele>932.8</ele>
      </trkpt>
      <trkpt lat="44.56361" lon="5.95363">
        <ele>933</ele>
        <time>2026-08-30T08:08:43Z</time>
      </trkpt>
      <trkpt lat="44.56361" lon="5.9536">
        <ele>933</ele>
        <time>2026-08-30T08:08:44Z</time>
      </trkpt>
      <trkpt lat="44.56361" lon="5.95334">
        <ele>932</ele>
        <time>2026-08-30T08:08:58Z</time>
      </trkpt>
      <trkpt lat="44.56357" lon="5.95277">
        <ele>929.9</ele>
        <time>2026-08-30T08:09:01Z</time>
      </trkpt>
      <trkpt lat="44.56354" lon="5.95207">
        <ele>926.4</ele>
      </trkpt>
      <trkpt lat="44.56349" lon="5.95137">
        <ele>926.6</ele>
      </trkpt>
      <trkpt lat="44.56346" lon="5.95101">
        <ele>926.5</ele>
      </trkpt>
      <trkpt lat="44.56346" lon="5.95088">
        <ele>926.4</ele>
      </trkpt>
      <trkpt lat="44.56348" lon="5.95083">
        <ele>926.5</ele>
      </trkpt>
      <trkpt lat="44.56355" lon="5.9508">
        <ele>926.8</ele>
      </trkpt>
      <trkpt lat="44.56368" lon="5.95075">
        <ele>927.4</ele>
      </trkpt>
      <trkpt lat="44.56384" lon="5.95068">
        <ele>928.2</ele>
      </trkpt>
      <trkpt lat="44.56387" lon="5.95065">
        <ele>928.2</ele>
      </trkpt>
      <trkpt lat="44.56391" lon="5.9505">
        <ele>928</ele>
      </trkpt>
      <trkpt lat="44.56397" lon="5.95025">
        <ele>928.1</ele>
      </trkpt>
      <trkpt lat="44.56398" lon="5.94997">
        <ele>927.5</ele>
      </trkpt>
      <trkpt lat="44.56396" lon="5.94971">
        <ele>926.2</ele>
      </trkpt>
      <trkpt lat="44.56391" lon="5.94904">
        <ele>925.5</ele>
      </trkpt>
      <trkpt lat="44.56392" lon="5.94789">
        <ele>924</ele>
      </trkpt>
      <trkpt lat="44.56395" lon="5.94725">
        <ele>923</ele>
      </trkpt>
      <trkpt lat="44.56393" lon="5.94646">
        <ele>922.2</ele>
      </trkpt>
      <trkpt lat="44.56401" lon="5.946">
        <ele>921.8</ele>
      </trkpt>
      <trkpt lat="44.56421" lon="5.94562">
        <ele>922.1</ele>
      </trkpt>
      <trkpt lat="44.56456" lon="5.94496">
        <ele>921.4</ele>
      </trkpt>
      <trkpt lat="44.565" lon="5.94506">
        <ele>923.2</ele>
      </trkpt>
      <trkpt lat="44.56535" lon="5.94515">
        <ele>923.8</ele>
      </trkpt>
      <trkpt lat="44.56589" lon="5.94524">
        <ele>926</ele>
      </trkpt>
      <trkpt lat="44.56604" lon="5.94524">
        <ele>926.6</ele>
      </trkpt>
      <trkpt lat="44.56622" lon="5.94522">
        <ele>928.4</ele>
      </trkpt>
      <trkpt lat="44.56636" lon="5.94522">
        <ele>930.6</ele>
      </trkpt>
      <trkpt lat="44.56642" lon="5.9452">
        <ele>931.7</ele>
      </trkpt>
      <trkpt lat="44.56657" lon="5.94512">
        <ele>935.3</ele>
      </trkpt>
      <trkpt lat="44.56667" lon="5.94476">
        <ele>938.9</ele>
      </trkpt>
      <trkpt lat="44.56692" lon="5.94455">
        <ele>947.1</ele>
      </trkpt>
      <trkpt lat="44.56707" lon="5.94439">
        <ele>952.1</ele>
      </trkpt>
      <trkpt lat="44.5671" lon="5.94428">
        <ele>953.6</ele>
      </trkpt>
      <trkpt lat="44.56718" lon="5.94421">
        <ele>955.8</ele>
      </trkpt>
      <trkpt lat="44.56728" lon="5.94385">
        <ele>959.8</ele>
      </trkpt>
      <trkpt lat="44.56743" lon="5.94351">
        <ele>964.2</ele>
      </trkpt>
      <trkpt lat="44.56754" lon="5.94314">
        <ele>965.3</ele>
      </trkpt>
      <trkpt lat="44.56764" lon="5.94297">
        <ele>968</ele>
      </trkpt>
      <trkpt lat="44.56768" lon="5.94286">
        <ele>968.9</ele>
      </trkpt>
      <trkpt lat="44.56763" lon="5.94258">
        <ele>968.3</ele>
      </trkpt>
      <trkpt lat="44.56778" lon="5.94214">
        <ele>978.5</ele>
      </trkpt>
      <trkpt lat="44.56778" lon="5.94203">
        <ele>979.5</ele>
      </trkpt>
      <trkpt lat="44.56779" lon="5.9417">
        <ele>981.7</ele>
      </trkpt>
      <trkpt lat="44.56779" lon="5.94153">
        <ele>981.1</ele>
      </trkpt>
      <trkpt lat="44.5678" lon="5.94125">
        <ele>981.3</ele>
      </trkpt>
      <trkpt lat="44.5678" lon="5.94118">
        <ele>981.2</ele>
      </trkpt>
      <trkpt lat="44.56779" lon="5.94105">
        <ele>980.6</ele>
      </trkpt>
      <trkpt lat="44.56781" lon="5.94068">
        <ele>980.5</ele>
      </trkpt>
      <trkpt lat="44.56782" lon="5.9404">
        <ele>979.5</ele>
      </trkpt>
      <trkpt lat="44.5679" lon="5.93998">
        <ele>984.4</ele>
      </trkpt>
      <trkpt lat="44.56792" lon="5.93985">
        <ele>985.8</ele>
      </trkpt>
      <trkpt lat="44.56795" lon="5.93959">
        <ele>986.9</ele>
      </trkpt>
      <trkpt lat="44.56811" lon="5.93938">
        <ele>993.1</ele>
      </trkpt>
      <trkpt lat="44.56816" lon="5.93931">
        <ele>994</ele>
        <time>2026-08-30T08:40:20Z</time>
      </trkpt>
      <trkpt lat="44.56836" lon="5.93887">
        <ele>995.1</ele>
      </trkpt>
      <trkpt lat="44.56849" lon="5.93861">
        <ele>996.5</ele>
      </trkpt>
      <trkpt lat="44.56852" lon="5.93857">
        <ele>996.8</ele>
      </trkpt>
      <trkpt lat="44.56855" lon="5.93858">
        <ele>998</ele>
        <time>2026-08-30T08:41:01Z</time>
      </trkpt>
      <trkpt lat="44.56853" lon="5.93874">
        <ele>1000.6</ele>
      </trkpt>
      <trkpt lat="44.56839" lon="5.93939">
        <ele>1006.8</ele>
      </trkpt>
      <trkpt lat="44.56832" lon="5.93972">
        <ele>1010.1</ele>
        <time>2026-08-30T08:42:02Z</time>
      </trkpt>
      <trkpt lat="44.56827" lon="5.93993">
        <ele>1009.3</ele>
      </trkpt>
      <trkpt lat="44.56828" lon="5.94006">
        <ele>1010.3</ele>
      </trkpt>
      <trkpt lat="44.56832" lon="5.94016">
        <ele>1012.4</ele>
      </trkpt>
      <trkpt lat="44.56834" lon="5.9404">
        <ele>1013.4</ele>
        <time>2026-08-30T08:42:09Z</time>
      </trkpt>
      <trkpt lat="44.56834" lon="5.94063">
        <ele>1013.4</ele>
        <time>2026-08-30T08:42:25Z</time>
      </trkpt>
      <trkpt lat="44.56836" lon="5.94084">
        <ele>1014.9</ele>
        <time>2026-08-30T08:42:37Z</time>
      </trkpt>
      <trkpt lat="44.56838" lon="5.941">
        <ele>1016.7</ele>
        <time>2026-08-30T08:42:54Z</time>
      </trkpt>
      <trkpt lat="44.5684" lon="5.94116">
        <ele>1018.4</ele>
        <time>2026-08-30T08:43:09Z</time>
      </trkpt>
      <trkpt lat="44.56842" lon="5.94132">
        <ele>1020</ele>
      </trkpt>
      <trkpt lat="44.56844" lon="5.94134">
        <ele>1021.8</ele>
      </trkpt>
      <trkpt lat="44.56847" lon="5.94129">
        <ele>1023.2</ele>
        <time>2026-08-30T08:43:25Z</time>
      </trkpt>
      <trkpt lat="44.56849" lon="5.94109">
        <ele>986.6</ele>
        <time>2026-08-30T08:43:42Z</time>
      </trkpt>
      <trkpt lat="44.56853" lon="5.94089">
        <ele>987</ele>
        <time>2026-08-30T08:43:57Z</time>
      </trkpt>
      <trkpt lat="44.56855" lon="5.94076">
        <ele>987.2</ele>
        <time>2026-08-30T08:44:07Z</time>
      </trkpt>
      <trkpt lat="44.56856" lon="5.94071">
        <ele>1025.9</ele>
        <time>2026-08-30T08:44:12Z</time>
      </trkpt>
      <trkpt lat="44.56859" lon="5.9406">
        <ele>989.8</ele>
        <time>2026-08-30T08:44:20Z</time>
      </trkpt>
      <trkpt lat="44.56864" lon="5.94047">
        <ele>990.8</ele>
        <time>2026-08-30T08:44:31Z</time>
      </trkpt>
      <trkpt lat="44.56868" lon="5.94033">
        <ele>991</ele>
        <time>2026-08-30T08:44:44Z</time>
      </trkpt>
      <trkpt lat="44.56874" lon="5.94016">
        <ele>991</ele>
        <time>2026-08-30T08:44:59Z</time>
      </trkpt>
      <trkpt lat="44.56876" lon="5.94011">
        <ele>994</ele>
        <time>2026-08-30T08:45:03Z</time>
      </trkpt>
      <trkpt lat="44.56877" lon="5.94008">
        <ele>995</ele>
        <time>2026-08-30T08:45:05Z</time>
      </trkpt>
      <trkpt lat="44.56884" lon="5.93992">
        <ele>995.4</ele>
        <time>2026-08-30T08:45:20Z</time>
      </trkpt>
      <trkpt lat="44.5689" lon="5.93979">
        <ele>998</ele>
        <time>2026-08-30T08:45:31Z</time>
      </trkpt>
      <trkpt lat="44.56896" lon="5.93966">
        <ele>999.4</ele>
        <time>2026-08-30T08:45:42Z</time>
      </trkpt>
      <trkpt lat="44.56902" lon="5.93953">
        <ele>1001</ele>
        <time>2026-08-30T08:45:54Z</time>
      </trkpt>
      <trkpt lat="44.5691" lon="5.93932">
        <ele>1003.4</ele>
        <time>2026-08-30T08:46:13Z</time>
      </trkpt>
      <trkpt lat="44.56916" lon="5.93918">
        <ele>1004.4</ele>
        <time>2026-08-30T08:46:24Z</time>
      </trkpt>
      <trkpt lat="44.56922" lon="5.93901">
        <ele>1006</ele>
        <time>2026-08-30T08:46:39Z</time>
      </trkpt>
      <trkpt lat="44.56927" lon="5.93886">
        <ele>1007</ele>
        <time>2026-08-30T08:46:52Z</time>
      </trkpt>
      <trkpt lat="44.56932" lon="5.93873">
        <ele>1009.6</ele>
        <time>2026-08-30T08:47:04Z</time>
      </trkpt>
      <trkpt lat="44.56941" lon="5.93856">
        <ele>1011.8</ele>
        <time>2026-08-30T08:47:21Z</time>
      </trkpt>
      <trkpt lat="44.56948" lon="5.93839">
        <ele>1012.2</ele>
        <time>2026-08-30T08:47:36Z</time>
      </trkpt>
      <trkpt lat="44.56954" lon="5.93826">
        <ele>1013.4</ele>
        <time>2026-08-30T08:47:49Z</time>
      </trkpt>
      <trkpt lat="44.5696" lon="5.9382">
        <ele>1016.4</ele>
        <time>2026-08-30T08:47:56Z</time>
      </trkpt>
      <trkpt lat="44.56965" lon="5.93809">
        <ele>1017.2</ele>
        <time>2026-08-30T08:48:06Z</time>
      </trkpt>
      <trkpt lat="44.5697" lon="5.938">
        <ele>1018</ele>
        <time>2026-08-30T08:48:14Z</time>
      </trkpt>
      <trkpt lat="44.56974" lon="5.93792">
        <ele>1019</ele>
        <time>2026-08-30T08:48:21Z</time>
      </trkpt>
      <trkpt lat="44.56975" lon="5.93791">
        <ele>1019</ele>
        <time>2026-08-30T08:48:22Z</time>
      </trkpt>
      <trkpt lat="44.56976" lon="5.93789">
        <ele>1019.4</ele>
        <time>2026-08-30T08:48:25Z</time>
      </trkpt>
      <trkpt lat="44.56984" lon="5.9378">
        <ele>1020.6</ele>
        <time>2026-08-30T08:48:35Z</time>
      </trkpt>
      <trkpt lat="44.5699" lon="5.93777">
        <ele>1021.4</ele>
        <time>2026-08-30T08:48:42Z</time>
      </trkpt>
      <trkpt lat="44.56998" lon="5.93775">
        <ele>1022.4</ele>
        <time>2026-08-30T08:48:51Z</time>
      </trkpt>
      <trkpt lat="44.57006" lon="5.93771">
        <ele>1024.4</ele>
        <time>2026-08-30T08:49:04Z</time>
      </trkpt>
      <trkpt lat="44.57008" lon="5.9377">
        <ele>1025.6</ele>
        <time>2026-08-30T08:49:16Z</time>
      </trkpt>
      <trkpt lat="44.57009" lon="5.9377">
        <ele>1025.6</ele>
        <time>2026-08-30T08:49:41Z</time>
      </trkpt>
      <trkpt lat="44.57008" lon="5.93769">
        <ele>1026</ele>
        <time>2026-08-30T08:50:10Z</time>
      </trkpt>
      <trkpt lat="44.57012" lon="5.9377">
        <ele>1026</ele>
        <time>2026-08-30T08:50:57Z</time>
      </trkpt>
      <trkpt lat="44.5702" lon="5.93768">
        <ele>1026.8</ele>
        <time>2026-08-30T08:51:08Z</time>
      </trkpt>
      <trkpt lat="44.57028" lon="5.93763">
        <ele>1027.8</ele>
        <time>2026-08-30T08:51:19Z</time>
      </trkpt>
      <trkpt lat="44.57031" lon="5.9376">
        <ele>1028</ele>
        <time>2026-08-30T08:51:23Z</time>
      </trkpt>
      <trkpt lat="44.57038" lon="5.93753">
        <ele>1029</ele>
        <time>2026-08-30T08:51:34Z</time>
      </trkpt>
      <trkpt lat="44.57044" lon="5.93749">
        <ele>1029.8</ele>
        <time>2026-08-30T08:51:48Z</time>
      </trkpt>
      <trkpt lat="44.57049" lon="5.93746">
        <ele>1030</ele>
        <time>2026-08-30T08:52:02Z</time>
      </trkpt>
      <trkpt lat="44.57056" lon="5.93743">
        <ele>1031.8</ele>
        <time>2026-08-30T08:52:17Z</time>
      </trkpt>
      <trkpt lat="44.57062" lon="5.93741">
        <ele>1034.4</ele>
        <time>2026-08-30T08:52:31Z</time>
      </trkpt>
      <trkpt lat="44.57068" lon="5.93737">
        <ele>1035.8</ele>
        <time>2026-08-30T08:52:44Z</time>
      </trkpt>
      <trkpt lat="44.57069" lon="5.93735">
        <ele>1036.8</ele>
        <time>2026-08-30T08:52:57Z</time>
      </trkpt>
      <trkpt lat="44.5707" lon="5.93735">
        <ele>1037</ele>
        <time>2026-08-30T08:53:36Z</time>
      </trkpt>
      <trkpt lat="44.57067" lon="5.93736">
        <ele>1037.4</ele>
        <time>2026-08-30T08:54:33Z</time>
      </trkpt>
      <trkpt lat="44.57068" lon="5.93736">
        <ele>1037.6</ele>
        <time>2026-08-30T08:55:18Z</time>
      </trkpt>
      <trkpt lat="44.57069" lon="5.93734">
        <ele>1038</ele>
        <time>2026-08-30T08:56:09Z</time>
      </trkpt>
      <trkpt lat="44.5707" lon="5.93732">
        <ele>1038.4</ele>
        <time>2026-08-30T08:56:55Z</time>
      </trkpt>
      <trkpt lat="44.57075" lon="5.93728">
        <ele>1038.8</ele>
        <time>2026-08-30T08:57:11Z</time>
      </trkpt>
      <trkpt lat="44.57081" lon="5.93718">
        <ele>1039</ele>
        <time>2026-08-30T08:57:25Z</time>
      </trkpt>
      <trkpt lat="44.57082" lon="5.93713">
        <ele>1038.6</ele>
        <time>2026-08-30T08:57:29Z</time>
      </trkpt>
      <trkpt lat="44.57085" lon="5.93707">
        <ele>1037.8</ele>
        <time>2026-08-30T08:57:41Z</time>
      </trkpt>
      <trkpt lat="44.57088" lon="5.93711">
        <ele>1039.6</ele>
        <time>2026-08-30T08:57:54Z</time>
      </trkpt>
      <trkpt lat="44.57092" lon="5.93707">
        <ele>1042.6</ele>
        <time>2026-08-30T08:58:08Z</time>
      </trkpt>
      <trkpt lat="44.57089" lon="5.937">
        <ele>1043.2</ele>
        <time>2026-08-30T08:58:20Z</time>
      </trkpt>
      <trkpt lat="44.5709" lon="5.937">
        <ele>1043.2</ele>
        <time>2026-08-30T08:58:36Z</time>
      </trkpt>
      <trkpt lat="44.5709" lon="5.93699">
        <ele>1042.4</ele>
        <time>2026-08-30T08:58:47Z</time>
      </trkpt>
      <trkpt lat="44.5709" lon="5.937">
        <ele>1043.2</ele>
        <time>2026-08-30T08:59:03Z</time>
      </trkpt>
      <trkpt lat="44.5709" lon="5.937">
        <ele>1042.6</ele>
        <time>2026-08-30T08:59:12Z</time>
      </trkpt>
      <trkpt lat="44.5709" lon="5.937">
        <ele>1042.8</ele>
        <time>2026-08-30T08:59:32Z</time>
      </trkpt>
      <trkpt lat="44.5709" lon="5.93699">
        <ele>1043</ele>
        <time>2026-08-30T08:59:41Z</time>
      </trkpt>
      <trkpt lat="44.57088" lon="5.93699">
        <ele>1043</ele>
        <time>2026-08-30T09:00:00Z</time>
      </trkpt>
      <trkpt lat="44.57088" lon="5.93699">
        <ele>1043.2</ele>
        <time>2026-08-30T09:00:18Z</time>
      </trkpt>
      <trkpt lat="44.57088" lon="5.93699">
        <ele>1043.4</ele>
        <time>2026-08-30T09:00:40Z</time>
      </trkpt>
      <trkpt lat="44.57088" lon="5.93699">
        <ele>1043.4</ele>
        <time>2026-08-30T09:00:52Z</time>
      </trkpt>
      <trkpt lat="44.57088" lon="5.93699">
        <ele>1044</ele>
        <time>2026-08-30T09:01:08Z</time>
      </trkpt>
      <trkpt lat="44.57088" lon="5.93699">
        <ele>1044</ele>
        <time>2026-08-30T09:01:25Z</time>
      </trkpt>
      <trkpt lat="44.57089" lon="5.93699">
        <ele>1043.6</ele>
        <time>2026-08-30T09:01:54Z</time>
      </trkpt>
      <trkpt lat="44.57089" lon="5.93699">
        <ele>1044.6</ele>
        <time>2026-08-30T09:02:01Z</time>
      </trkpt>
      <trkpt lat="44.5709" lon="5.937">
        <ele>1044.4</ele>
        <time>2026-08-30T09:02:26Z</time>
      </trkpt>
      <trkpt lat="44.57091" lon="5.937">
        <ele>1044.8</ele>
        <time>2026-08-30T09:02:53Z</time>
      </trkpt>
      <trkpt lat="44.57092" lon="5.937">
        <ele>1044.4</ele>
        <time>2026-08-30T09:03:16Z</time>
      </trkpt>
      <trkpt lat="44.57092" lon="5.937">
        <ele>1044.4</ele>
        <time>2026-08-30T09:03:31Z</time>
      </trkpt>
      <trkpt lat="44.57092" lon="5.93701">
        <ele>1044.8</ele>
        <time>2026-08-30T09:03:43Z</time>
      </trkpt>
      <trkpt lat="44.57092" lon="5.93701">
        <ele>1045.2</ele>
        <time>2026-08-30T09:04:03Z</time>
      </trkpt>
      <trkpt lat="44.57093" lon="5.93701">
        <ele>1045.4</ele>
        <time>2026-08-30T09:04:20Z</time>
      </trkpt>
      <trkpt lat="44.57093" lon="5.937">
        <ele>1046</ele>
        <time>2026-08-30T09:04:36Z</time>
      </trkpt>
      <trkpt lat="44.57093" lon="5.937">
        <ele>1046.8</ele>
        <time>2026-08-30T09:04:52Z</time>
      </trkpt>
      <trkpt lat="44.57093" lon="5.937">
        <ele>1046.2</ele>
        <time>2026-08-30T09:05:04Z</time>
      </trkpt>
      <trkpt lat="44.57093" lon="5.93701">
        <ele>1046.4</ele>
        <time>2026-08-30T09:05:17Z</time>
      </trkpt>
      <trkpt lat="44.57093" lon="5.93702">
        <ele>1046.4</ele>
        <time>2026-08-30T09:05:29Z</time>
      </trkpt>
      <trkpt lat="44.5709" lon="5.93701">
        <ele>1046.2</ele>
        <time>2026-08-30T09:05:43Z</time>
      </trkpt>
      <trkpt lat="44.57089" lon="5.93701">
        <ele>1046.4</ele>
        <time>2026-08-30T09:05:59Z</time>
      </trkpt>
      <trkpt lat="44.57089" lon="5.93702">
        <ele>1084.8</ele>
        <time>2026-08-30T09:06:13Z</time>
      </trkpt>
      <trkpt lat="44.57089" lon="5.93702">
        <ele>1084.8</ele>
        <time>2026-08-30T09:06:14Z</time>
      </trkpt>
      <trkpt lat="44.57088" lon="5.93705">
        <ele>1084.8</ele>
        <time>2026-08-30T09:06:34Z</time>
      </trkpt>
      <trkpt lat="44.57088" lon="5.93705">
        <ele>1084.8</ele>
        <time>2026-08-30T09:06:48Z</time>
      </trkpt>
      <trkpt lat="44.57087" lon="5.93709">
        <ele>1084.6</ele>
        <time>2026-08-30T09:07:00Z</time>
      </trkpt>
      <trkpt lat="44.57086" lon="5.93709">
        <ele>1084.4</ele>
        <time>2026-08-30T09:07:16Z</time>
      </trkpt>
      <trkpt lat="44.57087" lon="5.93711">
        <ele>1084.2</ele>
        <time>2026-08-30T09:07:28Z</time>
      </trkpt>
      <trkpt lat="44.57086" lon="5.9371">
        <ele>1083.4</ele>
        <time>2026-08-30T09:07:42Z</time>
      </trkpt>
      <trkpt lat="44.57084" lon="5.93702">
        <ele>1081.8</ele>
        <time>2026-08-30T09:07:52Z</time>
      </trkpt>
      <trkpt lat="44.57084" lon="5.93689">
        <ele>1080.6</ele>
        <time>2026-08-30T09:08:02Z</time>
      </trkpt>
      <trkpt lat="44.57085" lon="5.93687">
        <ele>1080.6</ele>
        <time>2026-08-30T09:08:03Z</time>
      </trkpt>
      <trkpt lat="44.57085" lon="5.93673">
        <ele>1080</ele>
        <time>2026-08-30T09:08:15Z</time>
      </trkpt>
      <trkpt lat="44.57098" lon="5.93672">
        <ele>1080.2</ele>
        <time>2026-08-30T09:08:29Z</time>
      </trkpt>
      <trkpt lat="44.57101" lon="5.93664">
        <ele>1080.4</ele>
        <time>2026-08-30T09:08:45Z</time>
      </trkpt>
      <trkpt lat="44.57078" lon="5.93657">
        <ele>1081</ele>
        <time>2026-08-30T09:08:57Z</time>
      </trkpt>
      <trkpt lat="44.57064" lon="5.93654">
        <ele>1081.4</ele>
        <time>2026-08-30T09:09:13Z</time>
      </trkpt>
      <trkpt lat="44.57063" lon="5.93653">
        <ele>1081.4</ele>
        <time>2026-08-30T09:09:16Z</time>
      </trkpt>
      <trkpt lat="44.57062" lon="5.93652">
        <ele>1081.4</ele>
        <time>2026-08-30T09:09:17Z</time>
      </trkpt>
      <trkpt lat="44.57061" lon="5.9365">
        <ele>1081.4</ele>
        <time>2026-08-30T09:09:18Z</time>
      </trkpt>
      <trkpt lat="44.57053" lon="5.93644">
        <ele>1081</ele>
        <time>2026-08-30T09:09:27Z</time>
      </trkpt>
      <trkpt lat="44.57047" lon="5.93637">
        <ele>1080.6</ele>
        <time>2026-08-30T09:09:39Z</time>
      </trkpt>
      <trkpt lat="44.5704" lon="5.93629">
        <ele>1080.8</ele>
        <time>2026-08-30T09:09:51Z</time>
      </trkpt>
      <trkpt lat="44.5703" lon="5.93617">
        <ele>1081.8</ele>
        <time>2026-08-30T09:10:07Z</time>
      </trkpt>
      <trkpt lat="44.5703" lon="5.93615">
        <ele>1082</ele>
        <time>2026-08-30T09:10:19Z</time>
      </trkpt>
      <trkpt lat="44.5703" lon="5.93615">
        <ele>1081.4</ele>
        <time>2026-08-30T09:10:47Z</time>
      </trkpt>
      <trkpt lat="44.57027" lon="5.93611">
        <ele>1081</ele>
        <time>2026-08-30T09:11:11Z</time>
      </trkpt>
      <trkpt lat="44.57022" lon="5.93603">
        <ele>1081.2</ele>
        <time>2026-08-30T09:11:22Z</time>
      </trkpt>
      <trkpt lat="44.57018" lon="5.93593">
        <ele>1082</ele>
        <time>2026-08-30T09:11:36Z</time>
      </trkpt>
      <trkpt lat="44.57017" lon="5.93589">
        <ele>1081.8</ele>
        <time>2026-08-30T09:11:51Z</time>
      </trkpt>
      <trkpt lat="44.57017" lon="5.93592">
        <ele>1081.4</ele>
        <time>2026-08-30T09:12:01Z</time>
      </trkpt>
      <trkpt lat="44.57018" lon="5.93592">
        <ele>1081.2</ele>
        <time>2026-08-30T09:12:16Z</time>
      </trkpt>
      <trkpt lat="44.57018" lon="5.93592">
        <ele>1081.4</ele>
        <time>2026-08-30T09:12:33Z</time>
      </trkpt>
      <trkpt lat="44.57018" lon="5.9359">
        <ele>1081.2</ele>
        <time>2026-08-30T09:13:01Z</time>
      </trkpt>
      <trkpt lat="44.57019" lon="5.9359">
        <ele>1079.6</ele>
        <time>2026-08-30T09:13:20Z</time>
      </trkpt>
      <trkpt lat="44.57018" lon="5.93589">
        <ele>1079</ele>
        <time>2026-08-30T09:13:50Z</time>
      </trkpt>
      <trkpt lat="44.57018" lon="5.9359">
        <ele>1078.4</ele>
        <time>2026-08-30T09:14:18Z</time>
      </trkpt>
      <trkpt lat="44.57019" lon="5.93589">
        <ele>1077.6</ele>
        <time>2026-08-30T09:14:56Z</time>
      </trkpt>
      <trkpt lat="44.5702" lon="5.93577">
        <ele>1076.6</ele>
        <time>2026-08-30T09:15:10Z</time>
      </trkpt>
      <trkpt lat="44.57026" lon="5.93562">
        <ele>1075</ele>
        <time>2026-08-30T09:15:25Z</time>
      </trkpt>
      <trkpt lat="44.57027" lon="5.93559">
        <ele>1074</ele>
        <time>2026-08-30T09:15:43Z</time>
      </trkpt>
      <trkpt lat="44.5703" lon="5.93553">
        <ele>1073.6</ele>
        <time>2026-08-30T09:15:54Z</time>
      </trkpt>
      <trkpt lat="44.57037" lon="5.93537">
        <ele>1071.8</ele>
        <time>2026-08-30T09:16:10Z</time>
      </trkpt>
      <trkpt lat="44.57038" lon="5.93534">
        <ele>1071.8</ele>
        <time>2026-08-30T09:16:21Z</time>
      </trkpt>
      <trkpt lat="44.57041" lon="5.93529">
        <ele>1071.6</ele>
        <time>2026-08-30T09:16:30Z</time>
      </trkpt>
      <trkpt lat="44.57043" lon="5.93514">
        <ele>1071</ele>
        <time>2026-08-30T09:16:49Z</time>
      </trkpt>
      <trkpt lat="44.57038" lon="5.93501">
        <ele>1069.8</ele>
        <time>2026-08-30T09:17:08Z</time>
      </trkpt>
      <trkpt lat="44.57038" lon="5.93499">
        <ele>1070</ele>
        <time>2026-08-30T09:17:22Z</time>
      </trkpt>
      <trkpt lat="44.57037" lon="5.93479">
        <ele>1071.4</ele>
        <time>2026-08-30T09:17:46Z</time>
      </trkpt>
      <trkpt lat="44.57034" lon="5.93463">
        <ele>1072.4</ele>
        <time>2026-08-30T09:18:01Z</time>
      </trkpt>
      <trkpt lat="44.57028" lon="5.93457">
        <ele>1071.8</ele>
        <time>2026-08-30T09:18:10Z</time>
      </trkpt>
      <trkpt lat="44.5702" lon="5.93447">
        <ele>1068.6</ele>
        <time>2026-08-30T09:18:24Z</time>
      </trkpt>
      <trkpt lat="44.57012" lon="5.9344">
        <ele>1065.6</ele>
        <time>2026-08-30T09:18:42Z</time>
      </trkpt>
      <trkpt lat="44.57004" lon="5.93443">
        <ele>1062.4</ele>
        <time>2026-08-30T09:18:57Z</time>
      </trkpt>
      <trkpt lat="44.56997" lon="5.9344">
        <ele>1059.4</ele>
        <time>2026-08-30T09:19:10Z</time>
      </trkpt>
      <trkpt lat="44.56989" lon="5.93436">
        <ele>1056.8</ele>
        <time>2026-08-30T09:19:26Z</time>
      </trkpt>
      <trkpt lat="44.56981" lon="5.93431">
        <ele>1053.8</ele>
        <time>2026-08-30T09:19:40Z</time>
      </trkpt>
      <trkpt lat="44.56973" lon="5.93421">
        <ele>1050.8</ele>
        <time>2026-08-30T09:19:55Z</time>
      </trkpt>
      <trkpt lat="44.56967" lon="5.93416">
        <ele>1047.8</ele>
        <time>2026-08-30T09:20:10Z</time>
      </trkpt>
      <trkpt lat="44.56959" lon="5.93414">
        <ele>1044.6</ele>
        <time>2026-08-30T09:20:25Z</time>
      </trkpt>
      <trkpt lat="44.56956" lon="5.93405">
        <ele>1041.4</ele>
        <time>2026-08-30T09:20:39Z</time>
      </trkpt>
      <trkpt lat="44.56949" lon="5.93396">
        <ele>1038.4</ele>
        <time>2026-08-30T09:20:56Z</time>
      </trkpt>
      <trkpt lat="44.56941" lon="5.93388">
        <ele>1035.4</ele>
        <time>2026-08-30T09:21:11Z</time>
      </trkpt>
      <trkpt lat="44.56938" lon="5.93383">
        <ele>1033.8</ele>
        <time>2026-08-30T09:21:24Z</time>
      </trkpt>
      <trkpt lat="44.56928" lon="5.93371">
        <ele>1030.6</ele>
        <time>2026-08-30T09:21:40Z</time>
      </trkpt>
      <trkpt lat="44.56919" lon="5.93359">
        <ele>1027.8</ele>
        <time>2026-08-30T09:21:54Z</time>
      </trkpt>
      <trkpt lat="44.56914" lon="5.93348">
        <ele>1025.8</ele>
        <time>2026-08-30T09:22:03Z</time>
      </trkpt>
      <trkpt lat="44.56909" lon="5.93341">
        <ele>1023.6</ele>
        <time>2026-08-30T09:22:13Z</time>
      </trkpt>
      <trkpt lat="44.56906" lon="5.93338">
        <ele>1020.6</ele>
        <time>2026-08-30T09:22:26Z</time>
      </trkpt>
      <trkpt lat="44.56901" lon="5.9333">
        <ele>1019.6</ele>
        <time>2026-08-30T09:22:40Z</time>
      </trkpt>
      <trkpt lat="44.56892" lon="5.93323">
        <ele>1016.4</ele>
        <time>2026-08-30T09:22:53Z</time>
      </trkpt>
      <trkpt lat="44.56884" lon="5.93315">
        <ele>1013.4</ele>
        <time>2026-08-30T09:23:05Z</time>
      </trkpt>
      <trkpt lat="44.56879" lon="5.93304">
        <ele>1010.2</ele>
        <time>2026-08-30T09:23:19Z</time>
      </trkpt>
      <trkpt lat="44.56872" lon="5.93285">
        <ele>1007.2</ele>
        <time>2026-08-30T09:23:35Z</time>
      </trkpt>
      <trkpt lat="44.5687" lon="5.93281">
        <ele>1006.8</ele>
        <time>2026-08-30T09:23:38Z</time>
      </trkpt>
      <trkpt lat="44.5687" lon="5.93279">
        <ele>1006.6</ele>
        <time>2026-08-30T09:23:39Z</time>
      </trkpt>
      <trkpt lat="44.56869" lon="5.93279">
        <ele>1006.4</ele>
        <time>2026-08-30T09:23:40Z</time>
      </trkpt>
      <trkpt lat="44.56868" lon="5.93278">
        <ele>1006.2</ele>
        <time>2026-08-30T09:23:41Z</time>
      </trkpt>
      <trkpt lat="44.56868" lon="5.93276">
        <ele>1006</ele>
        <time>2026-08-30T09:23:42Z</time>
      </trkpt>
      <trkpt lat="44.5686" lon="5.93264">
        <ele>1005.2</ele>
        <time>2026-08-30T09:23:54Z</time>
      </trkpt>
      <trkpt lat="44.5685" lon="5.93249">
        <ele>1005.2</ele>
        <time>2026-08-30T09:24:10Z</time>
      </trkpt>
      <trkpt lat="44.56845" lon="5.93247">
        <ele>1005.6</ele>
        <time>2026-08-30T09:24:21Z</time>
      </trkpt>
      <trkpt lat="44.56836" lon="5.93256">
        <ele>1006.4</ele>
        <time>2026-08-30T09:24:34Z</time>
      </trkpt>
      <trkpt lat="44.56825" lon="5.93267">
        <ele>1005.2</ele>
        <time>2026-08-30T09:24:49Z</time>
      </trkpt>
      <trkpt lat="44.56819" lon="5.93272">
        <ele>1004.4</ele>
        <time>2026-08-30T09:25:04Z</time>
      </trkpt>
      <trkpt lat="44.56812" lon="5.93275">
        <ele>1004.2</ele>
        <time>2026-08-30T09:25:11Z</time>
      </trkpt>
      <trkpt lat="44.56809" lon="5.93274">
        <ele>1004</ele>
        <time>2026-08-30T09:25:14Z</time>
      </trkpt>
      <trkpt lat="44.56801" lon="5.93267">
        <ele>1003.8</ele>
        <time>2026-08-30T09:25:25Z</time>
      </trkpt>
      <trkpt lat="44.56802" lon="5.93268">
        <ele>1003.4</ele>
        <time>2026-08-30T09:25:46Z</time>
      </trkpt>
      <trkpt lat="44.56803" lon="5.93277">
        <ele>1003</ele>
        <time>2026-08-30T09:26:04Z</time>
      </trkpt>
      <trkpt lat="44.56803" lon="5.93285">
        <ele>1002.6</ele>
        <time>2026-08-30T09:26:17Z</time>
      </trkpt>
      <trkpt lat="44.56806" lon="5.93286">
        <ele>1002</ele>
        <time>2026-08-30T09:26:32Z</time>
      </trkpt>
      <trkpt lat="44.56807" lon="5.93289">
        <ele>1001.6</ele>
        <time>2026-08-30T09:26:57Z</time>
      </trkpt>
      <trkpt lat="44.56805" lon="5.93293">
        <ele>1001.2</ele>
        <time>2026-08-30T09:27:11Z</time>
      </trkpt>
      <trkpt lat="44.56801" lon="5.93307">
        <ele>999.4</ele>
        <time>2026-08-30T09:27:25Z</time>
      </trkpt>
      <trkpt lat="44.56802" lon="5.9332">
        <ele>996.4</ele>
        <time>2026-08-30T09:27:40Z</time>
      </trkpt>
      <trkpt lat="44.56804" lon="5.93326">
        <ele>995.2</ele>
        <time>2026-08-30T09:27:45Z</time>
      </trkpt>
      <trkpt lat="44.56805" lon="5.93337">
        <ele>993.2</ele>
        <time>2026-08-30T09:27:55Z</time>
      </trkpt>
      <trkpt lat="44.56808" lon="5.93347">
        <ele>991.6</ele>
        <time>2026-08-30T09:28:08Z</time>
      </trkpt>
      <trkpt lat="44.56816" lon="5.93359">
        <ele>990.2</ele>
        <time>2026-08-30T09:28:26Z</time>
      </trkpt>
      <trkpt lat="44.56832" lon="5.93362">
        <ele>990.4</ele>
        <time>2026-08-30T09:28:44Z</time>
      </trkpt>
      <trkpt lat="44.56834" lon="5.93372">
        <ele>990.6</ele>
        <time>2026-08-30T09:28:59Z</time>
      </trkpt>
      <trkpt lat="44.5683" lon="5.93381">
        <ele>988.2</ele>
        <time>2026-08-30T09:29:13Z</time>
      </trkpt>
      <trkpt lat="44.56836" lon="5.93394">
        <ele>986</ele>
        <time>2026-08-30T09:29:25Z</time>
      </trkpt>
      <trkpt lat="44.56839" lon="5.93401">
        <ele>984.8</ele>
        <time>2026-08-30T09:29:32Z</time>
      </trkpt>
      <trkpt lat="44.5684" lon="5.93404">
        <ele>984.4</ele>
        <time>2026-08-30T09:29:34Z</time>
      </trkpt>
      <trkpt lat="44.56842" lon="5.93408">
        <ele>983.8</ele>
        <time>2026-08-30T09:29:37Z</time>
      </trkpt>
      <trkpt lat="44.56847" lon="5.93413">
        <ele>983</ele>
        <time>2026-08-30T09:29:49Z</time>
      </trkpt>
      <trkpt lat="44.56849" lon="5.93419">
        <ele>982.6</ele>
        <time>2026-08-30T09:29:55Z</time>
      </trkpt>
      <trkpt lat="44.5685" lon="5.9343">
        <ele>981.4</ele>
        <time>2026-08-30T09:30:04Z</time>
      </trkpt>
      <trkpt lat="44.56856" lon="5.93444">
        <ele>978.8</ele>
        <time>2026-08-30T09:30:15Z</time>
      </trkpt>
      <trkpt lat="44.5686" lon="5.93453">
        <ele>977</ele>
        <time>2026-08-30T09:30:23Z</time>
      </trkpt>
      <trkpt lat="44.56858" lon="5.93463">
        <ele>975.2</ele>
        <time>2026-08-30T09:30:33Z</time>
      </trkpt>
      <trkpt lat="44.56857" lon="5.93466">
        <ele>975</ele>
        <time>2026-08-30T09:30:36Z</time>
      </trkpt>
      <trkpt lat="44.56854" lon="5.93466">
        <ele>975</ele>
        <time>2026-08-30T09:30:39Z</time>
      </trkpt>
      <trkpt lat="44.56847" lon="5.9347">
        <ele>975</ele>
        <time>2026-08-30T09:30:48Z</time>
      </trkpt>
      <trkpt lat="44.56838" lon="5.93476">
        <ele>974.2</ele>
        <time>2026-08-30T09:31:00Z</time>
      </trkpt>
      <trkpt lat="44.56829" lon="5.93485">
        <ele>972.4</ele>
        <time>2026-08-30T09:31:14Z</time>
      </trkpt>
      <trkpt lat="44.56826" lon="5.93492">
        <ele>971.4</ele>
        <time>2026-08-30T09:31:20Z</time>
      </trkpt>
      <trkpt lat="44.56819" lon="5.93505">
        <ele>969</ele>
        <time>2026-08-30T09:31:33Z</time>
      </trkpt>
      <trkpt lat="44.56812" lon="5.93514">
        <ele>967</ele>
        <time>2026-08-30T09:31:44Z</time>
      </trkpt>
      <trkpt lat="44.56806" lon="5.9352">
        <ele>965</ele>
        <time>2026-08-30T09:31:53Z</time>
      </trkpt>
      <trkpt lat="44.56799" lon="5.93529">
        <ele>962.2</ele>
        <time>2026-08-30T09:32:04Z</time>
      </trkpt>
      <trkpt lat="44.56796" lon="5.93534">
        <ele>960.8</ele>
        <time>2026-08-30T09:32:09Z</time>
      </trkpt>
      <trkpt lat="44.5679" lon="5.93549">
        <ele>958.4</ele>
        <time>2026-08-30T09:32:22Z</time>
      </trkpt>
      <trkpt lat="44.56782" lon="5.9356">
        <ele>955.2</ele>
        <time>2026-08-30T09:32:37Z</time>
      </trkpt>
      <trkpt lat="44.56775" lon="5.93565">
        <ele>952</ele>
        <time>2026-08-30T09:32:50Z</time>
      </trkpt>
      <trkpt lat="44.56769" lon="5.93574">
        <ele>948.8</ele>
        <time>2026-08-30T09:33:02Z</time>
      </trkpt>
      <trkpt lat="44.56761" lon="5.93579">
        <ele>946</ele>
        <time>2026-08-30T09:33:14Z</time>
      </trkpt>
      <trkpt lat="44.56754" lon="5.93584">
        <ele>942.8</ele>
        <time>2026-08-30T09:33:26Z</time>
      </trkpt>
      <trkpt lat="44.56747" lon="5.93589">
        <ele>939.6</ele>
        <time>2026-08-30T09:33:39Z</time>
      </trkpt>
      <trkpt lat="44.56739" lon="5.93593">
        <ele>937</ele>
        <time>2026-08-30T09:33:52Z</time>
      </trkpt>
      <trkpt lat="44.56735" lon="5.93594">
        <ele>935.8</ele>
        <time>2026-08-30T09:33:57Z</time>
      </trkpt>
      <trkpt lat="44.56728" lon="5.93601">
        <ele>933.2</ele>
        <time>2026-08-30T09:34:08Z</time>
      </trkpt>
      <trkpt lat="44.56727" lon="5.93601">
        <ele>933</ele>
        <time>2026-08-30T09:34:09Z</time>
      </trkpt>
      <trkpt lat="44.56721" lon="5.9361">
        <ele>931</ele>
        <time>2026-08-30T09:34:18Z</time>
      </trkpt>
      <trkpt lat="44.56717" lon="5.93621">
        <ele>929</ele>
        <time>2026-08-30T09:34:29Z</time>
      </trkpt>
      <trkpt lat="44.56711" lon="5.93634">
        <ele>927.6</ele>
        <time>2026-08-30T09:34:41Z</time>
      </trkpt>
      <trkpt lat="44.56704" lon="5.93644">
        <ele>926.2</ele>
        <time>2026-08-30T09:34:53Z</time>
      </trkpt>
      <trkpt lat="44.56701" lon="5.93648">
        <ele>925.6</ele>
        <time>2026-08-30T09:34:58Z</time>
      </trkpt>
      <trkpt lat="44.56698" lon="5.93652">
        <ele>925.2</ele>
        <time>2026-08-30T09:35:02Z</time>
      </trkpt>
      <trkpt lat="44.56695" lon="5.93654">
        <ele>924.8</ele>
        <time>2026-08-30T09:35:05Z</time>
      </trkpt>
      <trkpt lat="44.56688" lon="5.93667">
        <ele>923.2</ele>
        <time>2026-08-30T09:35:17Z</time>
      </trkpt>
      <trkpt lat="44.56687" lon="5.9367">
        <ele>922.6</ele>
        <time>2026-08-30T09:35:20Z</time>
      </trkpt>
      <trkpt lat="44.56682" lon="5.93683">
        <ele>920.8</ele>
        <time>2026-08-30T09:35:32Z</time>
      </trkpt>
      <trkpt lat="44.5668" lon="5.93694">
        <ele>918.6</ele>
        <time>2026-08-30T09:35:42Z</time>
      </trkpt>
      <trkpt lat="44.5668" lon="5.93697">
        <ele>918.2</ele>
        <time>2026-08-30T09:35:44Z</time>
      </trkpt>
      <trkpt lat="44.56685" lon="5.93708">
        <ele>916.8</ele>
        <time>2026-08-30T09:35:53Z</time>
      </trkpt>
      <trkpt lat="44.56686" lon="5.9371">
        <ele>916.8</ele>
        <time>2026-08-30T09:35:55Z</time>
      </trkpt>
      <trkpt lat="44.56688" lon="5.93714">
        <ele>916.8</ele>
        <time>2026-08-30T09:35:58Z</time>
      </trkpt>
      <trkpt lat="44.5669" lon="5.93718">
        <ele>917</ele>
        <time>2026-08-30T09:36:02Z</time>
      </trkpt>
      <trkpt lat="44.567" lon="5.93724">
        <ele>917.6</ele>
        <time>2026-08-30T09:36:13Z</time>
      </trkpt>
      <trkpt lat="44.5671" lon="5.93733">
        <ele>918.8</ele>
        <time>2026-08-30T09:36:25Z</time>
      </trkpt>
      <trkpt lat="44.5672" lon="5.93739">
        <ele>920</ele>
        <time>2026-08-30T09:36:37Z</time>
      </trkpt>
      <trkpt lat="44.5673" lon="5.93742">
        <ele>921.2</ele>
        <time>2026-08-30T09:36:49Z</time>
      </trkpt>
      <trkpt lat="44.56734" lon="5.93743">
        <ele>922.2</ele>
        <time>2026-08-30T09:36:54Z</time>
      </trkpt>
      <trkpt lat="44.56741" lon="5.93748">
        <ele>923.2</ele>
        <time>2026-08-30T09:37:05Z</time>
      </trkpt>
      <trkpt lat="44.56738" lon="5.93755">
        <ele>923.4</ele>
        <time>2026-08-30T09:37:19Z</time>
      </trkpt>
      <trkpt lat="44.56732" lon="5.93762">
        <ele>922.2</ele>
        <time>2026-08-30T09:37:33Z</time>
      </trkpt>
      <trkpt lat="44.5673" lon="5.93767">
        <ele>922</ele>
        <time>2026-08-30T09:37:37Z</time>
      </trkpt>
      <trkpt lat="44.56727" lon="5.93779">
        <ele>921.6</ele>
        <time>2026-08-30T09:37:46Z</time>
      </trkpt>
      <trkpt lat="44.56726" lon="5.93781">
        <ele>921.6</ele>
        <time>2026-08-30T09:37:47Z</time>
      </trkpt>
      <trkpt lat="44.56726" lon="5.93782">
        <ele>921.4</ele>
        <time>2026-08-30T09:37:48Z</time>
      </trkpt>
      <trkpt lat="44.56725" lon="5.93797">
        <ele>921</ele>
        <time>2026-08-30T09:37:58Z</time>
      </trkpt>
      <trkpt lat="44.56725" lon="5.93803">
        <ele>920.8</ele>
        <time>2026-08-30T09:38:02Z</time>
      </trkpt>
      <trkpt lat="44.56724" lon="5.93814">
        <ele>920.6</ele>
        <time>2026-08-30T09:38:13Z</time>
      </trkpt>
      <trkpt lat="44.56722" lon="5.93815">
        <ele>920.6</ele>
        <time>2026-08-30T09:38:30Z</time>
      </trkpt>
      <trkpt lat="44.56721" lon="5.93818">
        <ele>920.2</ele>
        <time>2026-08-30T09:38:51Z</time>
      </trkpt>
      <trkpt lat="44.56722" lon="5.93821">
        <ele>919.4</ele>
        <time>2026-08-30T09:39:08Z</time>
      </trkpt>
      <trkpt lat="44.56721" lon="5.93822">
        <ele>920.2</ele>
        <time>2026-08-30T09:39:25Z</time>
      </trkpt>
      <trkpt lat="44.56722" lon="5.93823">
        <ele>919.4</ele>
        <time>2026-08-30T09:39:54Z</time>
      </trkpt>
      <trkpt lat="44.56723" lon="5.93822">
        <ele>919.4</ele>
        <time>2026-08-30T09:40:15Z</time>
      </trkpt>
      <trkpt lat="44.56719" lon="5.93822">
        <ele>919.2</ele>
        <time>2026-08-30T09:40:20Z</time>
      </trkpt>
      <trkpt lat="44.56708" lon="5.93823">
        <ele>918.2</ele>
        <time>2026-08-30T09:40:34Z</time>
      </trkpt>
      <trkpt lat="44.567" lon="5.93814">
        <ele>916.6</ele>
        <time>2026-08-30T09:40:49Z</time>
      </trkpt>
      <trkpt lat="44.56691" lon="5.93805">
        <ele>914.6</ele>
        <time>2026-08-30T09:41:04Z</time>
      </trkpt>
      <trkpt lat="44.5668" lon="5.93802">
        <ele>913.2</ele>
        <time>2026-08-30T09:41:16Z</time>
      </trkpt>
      <trkpt lat="44.56675" lon="5.93801">
        <ele>912.6</ele>
        <time>2026-08-30T09:41:21Z</time>
      </trkpt>
      <trkpt lat="44.56664" lon="5.93797">
        <ele>911</ele>
        <time>2026-08-30T09:41:32Z</time>
      </trkpt>
      <trkpt lat="44.56652" lon="5.93797">
        <ele>909.6</ele>
        <time>2026-08-30T09:41:44Z</time>
      </trkpt>
      <trkpt lat="44.56642" lon="5.93798">
        <ele>908.6</ele>
        <time>2026-08-30T09:41:53Z</time>
      </trkpt>
      <trkpt lat="44.56636" lon="5.938">
        <ele>907.8</ele>
        <time>2026-08-30T09:41:59Z</time>
      </trkpt>
      <trkpt lat="44.56635" lon="5.938">
        <ele>907.6</ele>
        <time>2026-08-30T09:42:00Z</time>
      </trkpt>
      <trkpt lat="44.56633" lon="5.93801">
        <ele>907.4</ele>
        <time>2026-08-30T09:42:02Z</time>
      </trkpt>
      <trkpt lat="44.56632" lon="5.93801">
        <ele>907.4</ele>
        <time>2026-08-30T09:42:03Z</time>
      </trkpt>
      <trkpt lat="44.56623" lon="5.93799">
        <ele>906.2</ele>
        <time>2026-08-30T09:42:11Z</time>
      </trkpt>
      <trkpt lat="44.56617" lon="5.93798">
        <ele>905.8</ele>
        <time>2026-08-30T09:42:16Z</time>
      </trkpt>
      <trkpt lat="44.56616" lon="5.93798">
        <ele>905.8</ele>
        <time>2026-08-30T09:42:17Z</time>
      </trkpt>
      <trkpt lat="44.56607" lon="5.93797">
        <ele>905.2</ele>
        <time>2026-08-30T09:42:26Z</time>
      </trkpt>
      <trkpt lat="44.56597" lon="5.93794">
        <ele>904.6</ele>
        <time>2026-08-30T09:42:37Z</time>
      </trkpt>
      <trkpt lat="44.56589" lon="5.93787">
        <ele>903.6</ele>
        <time>2026-08-30T09:42:53Z</time>
      </trkpt>
      <trkpt lat="44.56587" lon="5.93784">
        <ele>904.2</ele>
        <time>2026-08-30T09:43:13Z</time>
      </trkpt>
      <trkpt lat="44.56585" lon="5.93782">
        <ele>903.8</ele>
        <time>2026-08-30T09:43:30Z</time>
      </trkpt>
      <trkpt lat="44.56584" lon="5.93782">
        <ele>903.6</ele>
        <time>2026-08-30T09:43:49Z</time>
      </trkpt>
      <trkpt lat="44.56583" lon="5.93785">
        <ele>903.2</ele>
        <time>2026-08-30T09:44:19Z</time>
      </trkpt>
      <trkpt lat="44.56586" lon="5.93786">
        <ele>903.2</ele>
        <time>2026-08-30T09:44:34Z</time>
      </trkpt>
      <trkpt lat="44.56583" lon="5.93784">
        <ele>903</ele>
        <time>2026-08-30T09:44:52Z</time>
      </trkpt>
      <trkpt lat="44.56584" lon="5.93785">
        <ele>903</ele>
        <time>2026-08-30T09:45:09Z</time>
      </trkpt>
      <trkpt lat="44.56582" lon="5.93781">
        <ele>902.8</ele>
        <time>2026-08-30T09:45:25Z</time>
      </trkpt>
      <trkpt lat="44.56581" lon="5.9378">
        <ele>902.8</ele>
        <time>2026-08-30T09:45:26Z</time>
      </trkpt>
      <trkpt lat="44.5658" lon="5.93776">
        <ele>902.8</ele>
        <time>2026-08-30T09:45:29Z</time>
      </trkpt>
      <trkpt lat="44.5658" lon="5.93775">
        <ele>902.8</ele>
        <time>2026-08-30T09:45:30Z</time>
      </trkpt>
      <trkpt lat="44.56577" lon="5.9377">
        <ele>902.8</ele>
        <time>2026-08-30T09:45:40Z</time>
      </trkpt>
      <trkpt lat="44.5658" lon="5.93782">
        <ele>902.8</ele>
        <time>2026-08-30T09:46:05Z</time>
      </trkpt>
      <trkpt lat="44.56581" lon="5.93787">
        <ele>902.8</ele>
        <time>2026-08-30T09:46:08Z</time>
      </trkpt>
      <trkpt lat="44.56582" lon="5.93789">
        <ele>902</ele>
        <time>2026-08-30T09:46:21Z</time>
      </trkpt>
      <trkpt lat="44.56582" lon="5.938">
        <ele>901.6</ele>
        <time>2026-08-30T09:46:36Z</time>
      </trkpt>
      <trkpt lat="44.56582" lon="5.93816">
        <ele>901</ele>
        <time>2026-08-30T09:46:47Z</time>
      </trkpt>
      <trkpt lat="44.5658" lon="5.93836">
        <ele>900.4</ele>
        <time>2026-08-30T09:47:00Z</time>
      </trkpt>
      <trkpt lat="44.5658" lon="5.93851">
        <ele>900</ele>
        <time>2026-08-30T09:47:09Z</time>
      </trkpt>
      <trkpt lat="44.5658" lon="5.93869">
        <ele>899.8</ele>
        <time>2026-08-30T09:47:20Z</time>
      </trkpt>
      <trkpt lat="44.56583" lon="5.93888">
        <ele>899.6</ele>
        <time>2026-08-30T09:47:32Z</time>
      </trkpt>
      <trkpt lat="44.56585" lon="5.93896">
        <ele>899.6</ele>
        <time>2026-08-30T09:47:37Z</time>
      </trkpt>
      <trkpt lat="44.56585" lon="5.93898">
        <ele>899.4</ele>
        <time>2026-08-30T09:47:38Z</time>
      </trkpt>
      <trkpt lat="44.56585" lon="5.93899">
        <ele>899.4</ele>
        <time>2026-08-30T09:47:39Z</time>
      </trkpt>
      <trkpt lat="44.56586" lon="5.93904">
        <ele>899.4</ele>
        <time>2026-08-30T09:47:50Z</time>
      </trkpt>
      <trkpt lat="44.56586" lon="5.93907">
        <ele>899.4</ele>
        <time>2026-08-30T09:47:52Z</time>
      </trkpt>
      <trkpt lat="44.56586" lon="5.93921">
        <ele>899.4</ele>
        <time>2026-08-30T09:48:01Z</time>
      </trkpt>
      <trkpt lat="44.56586" lon="5.93923">
        <ele>899.4</ele>
        <time>2026-08-30T09:48:02Z</time>
      </trkpt>
      <trkpt lat="44.56586" lon="5.93924">
        <ele>899.4</ele>
        <time>2026-08-30T09:48:03Z</time>
      </trkpt>
      <trkpt lat="44.56586" lon="5.93926">
        <ele>899.4</ele>
        <time>2026-08-30T09:48:04Z</time>
      </trkpt>
      <trkpt lat="44.56586" lon="5.93928">
        <ele>899.4</ele>
        <time>2026-08-30T09:48:05Z</time>
      </trkpt>
      <trkpt lat="44.56586" lon="5.93936">
        <ele>899.6</ele>
        <time>2026-08-30T09:48:10Z</time>
      </trkpt>
      <trkpt lat="44.56586" lon="5.93937">
        <ele>899.6</ele>
        <time>2026-08-30T09:48:11Z</time>
      </trkpt>
      <trkpt lat="44.56587" lon="5.93955">
        <ele>899.8</ele>
        <time>2026-08-30T09:48:22Z</time>
      </trkpt>
      <trkpt lat="44.56588" lon="5.9397">
        <ele>899.8</ele>
        <time>2026-08-30T09:48:32Z</time>
      </trkpt>
      <trkpt lat="44.56588" lon="5.93978">
        <ele>899.8</ele>
        <time>2026-08-30T09:48:37Z</time>
      </trkpt>
      <trkpt lat="44.56589" lon="5.9398">
        <ele>899.8</ele>
        <time>2026-08-30T09:48:38Z</time>
      </trkpt>
      <trkpt lat="44.56588" lon="5.93981">
        <ele>899.8</ele>
        <time>2026-08-30T09:48:39Z</time>
      </trkpt>
      <trkpt lat="44.56588" lon="5.93983">
        <ele>899.8</ele>
        <time>2026-08-30T09:48:40Z</time>
      </trkpt>
      <trkpt lat="44.56588" lon="5.93985">
        <ele>899.8</ele>
        <time>2026-08-30T09:48:41Z</time>
      </trkpt>
      <trkpt lat="44.56588" lon="5.93986">
        <ele>899.8</ele>
        <time>2026-08-30T09:48:42Z</time>
      </trkpt>
      <trkpt lat="44.56588" lon="5.93988">
        <ele>899.8</ele>
        <time>2026-08-30T09:48:43Z</time>
      </trkpt>
      <trkpt lat="44.56586" lon="5.94003">
        <ele>899.8</ele>
        <time>2026-08-30T09:48:53Z</time>
      </trkpt>
      <trkpt lat="44.56581" lon="5.94014">
        <ele>899.8</ele>
        <time>2026-08-30T09:49:01Z</time>
      </trkpt>
      <trkpt lat="44.56581" lon="5.94015">
        <ele>899.8</ele>
        <time>2026-08-30T09:49:02Z</time>
      </trkpt>
      <trkpt lat="44.56577" lon="5.94018">
        <ele>900</ele>
        <time>2026-08-30T09:49:12Z</time>
      </trkpt>
      <trkpt lat="44.56568" lon="5.94022">
        <ele>900</ele>
        <time>2026-08-30T09:49:26Z</time>
      </trkpt>
      <trkpt lat="44.56564" lon="5.94025">
        <ele>900</ele>
        <time>2026-08-30T09:49:31Z</time>
      </trkpt>
      <trkpt lat="44.56551" lon="5.94035">
        <ele>900</ele>
        <time>2026-08-30T09:49:44Z</time>
      </trkpt>
      <trkpt lat="44.56546" lon="5.94046">
        <ele>900</ele>
        <time>2026-08-30T09:49:54Z</time>
      </trkpt>
      <trkpt lat="44.5654" lon="5.94062">
        <ele>900</ele>
        <time>2026-08-30T09:50:05Z</time>
      </trkpt>
      <trkpt lat="44.56535" lon="5.94077">
        <ele>900</ele>
        <time>2026-08-30T09:50:16Z</time>
      </trkpt>
      <trkpt lat="44.5653" lon="5.94093">
        <ele>900.2</ele>
        <time>2026-08-30T09:50:27Z</time>
      </trkpt>
      <trkpt lat="44.56525" lon="5.94108">
        <ele>900.4</ele>
        <time>2026-08-30T09:50:38Z</time>
      </trkpt>
      <trkpt lat="44.5652" lon="5.94123">
        <ele>900.4</ele>
        <time>2026-08-30T09:50:48Z</time>
      </trkpt>
      <trkpt lat="44.56515" lon="5.94135">
        <ele>900.4</ele>
        <time>2026-08-30T09:50:57Z</time>
      </trkpt>
      <trkpt lat="44.56508" lon="5.94153">
        <ele>900.6</ele>
        <time>2026-08-30T09:51:10Z</time>
      </trkpt>
      <trkpt lat="44.56503" lon="5.9417">
        <ele>900.6</ele>
        <time>2026-08-30T09:51:21Z</time>
      </trkpt>
      <trkpt lat="44.56503" lon="5.94171">
        <ele>900.6</ele>
        <time>2026-08-30T09:51:22Z</time>
      </trkpt>
      <trkpt lat="44.56502" lon="5.94172">
        <ele>900.6</ele>
        <time>2026-08-30T09:51:23Z</time>
      </trkpt>
      <trkpt lat="44.56496" lon="5.94188">
        <ele>900.8</ele>
        <time>2026-08-30T09:51:35Z</time>
      </trkpt>
      <trkpt lat="44.56491" lon="5.94203">
        <ele>900.8</ele>
        <time>2026-08-30T09:51:45Z</time>
      </trkpt>
      <trkpt lat="44.56486" lon="5.9422">
        <ele>901</ele>
        <time>2026-08-30T09:51:56Z</time>
      </trkpt>
      <trkpt lat="44.56482" lon="5.94232">
        <ele>901</ele>
        <time>2026-08-30T09:52:05Z</time>
      </trkpt>
      <trkpt lat="44.56479" lon="5.94242">
        <ele>901</ele>
        <time>2026-08-30T09:52:13Z</time>
      </trkpt>
      <trkpt lat="44.56477" lon="5.94249">
        <ele>901.2</ele>
        <time>2026-08-30T09:52:26Z</time>
      </trkpt>
      <trkpt lat="44.56477" lon="5.94251">
        <ele>901.2</ele>
        <time>2026-08-30T09:52:27Z</time>
      </trkpt>
      <trkpt lat="44.56476" lon="5.94252">
        <ele>901.2</ele>
        <time>2026-08-30T09:52:28Z</time>
      </trkpt>
      <trkpt lat="44.56476" lon="5.94265">
        <ele>901.2</ele>
        <time>2026-08-30T09:52:39Z</time>
      </trkpt>
      <trkpt lat="44.56475" lon="5.94272">
        <ele>901.2</ele>
        <time>2026-08-30T09:52:44Z</time>
      </trkpt>
      <trkpt lat="44.56476" lon="5.94274">
        <ele>901.2</ele>
        <time>2026-08-30T09:52:45Z</time>
      </trkpt>
      <trkpt lat="44.56476" lon="5.94275">
        <ele>901.2</ele>
        <time>2026-08-30T09:52:46Z</time>
      </trkpt>
      <trkpt lat="44.56476" lon="5.94291">
        <ele>901.4</ele>
        <time>2026-08-30T09:52:57Z</time>
      </trkpt>
      <trkpt lat="44.56476" lon="5.94306">
        <ele>901.6</ele>
        <time>2026-08-30T09:53:07Z</time>
      </trkpt>
      <trkpt lat="44.56475" lon="5.94327">
        <ele>901.8</ele>
        <time>2026-08-30T09:53:20Z</time>
      </trkpt>
      <trkpt lat="44.56475" lon="5.94329">
        <ele>901.8</ele>
        <time>2026-08-30T09:53:22Z</time>
      </trkpt>
      <trkpt lat="44.56475" lon="5.94331">
        <ele>902</ele>
        <time>2026-08-30T09:53:23Z</time>
      </trkpt>
      <trkpt lat="44.56473" lon="5.9435">
        <ele>902</ele>
        <time>2026-08-30T09:53:35Z</time>
      </trkpt>
      <trkpt lat="44.56472" lon="5.94365">
        <ele>902.4</ele>
        <time>2026-08-30T09:53:45Z</time>
      </trkpt>
      <trkpt lat="44.5647" lon="5.94373">
        <ele>902.6</ele>
        <time>2026-08-30T09:53:50Z</time>
      </trkpt>
      <trkpt lat="44.5647" lon="5.94375">
        <ele>902.6</ele>
        <time>2026-08-30T09:53:51Z</time>
      </trkpt>
      <trkpt lat="44.56469" lon="5.94391">
        <ele>902.8</ele>
        <time>2026-08-30T09:54:01Z</time>
      </trkpt>
      <trkpt lat="44.56467" lon="5.94411">
        <ele>903</ele>
        <time>2026-08-30T09:54:15Z</time>
      </trkpt>
      <trkpt lat="44.56466" lon="5.94426">
        <ele>903.4</ele>
        <time>2026-08-30T09:54:25Z</time>
      </trkpt>
      <trkpt lat="44.56465" lon="5.94442">
        <ele>903.6</ele>
        <time>2026-08-30T09:54:36Z</time>
      </trkpt>
      <trkpt lat="44.56462" lon="5.94457">
        <ele>904</ele>
        <time>2026-08-30T09:54:46Z</time>
      </trkpt>
      <trkpt lat="44.5646" lon="5.94472">
        <ele>903.6</ele>
        <time>2026-08-30T09:54:56Z</time>
      </trkpt>
      <trkpt lat="44.56457" lon="5.94486">
        <ele>903.6</ele>
        <time>2026-08-30T09:55:06Z</time>
      </trkpt>
      <trkpt lat="44.56454" lon="5.94498">
        <ele>903.4</ele>
        <time>2026-08-30T09:55:14Z</time>
      </trkpt>
      <trkpt lat="44.56451" lon="5.94504">
        <ele>903</ele>
        <time>2026-08-30T09:55:25Z</time>
      </trkpt>
      <trkpt lat="44.5645" lon="5.94506">
        <ele>903</ele>
        <time>2026-08-30T09:55:49Z</time>
      </trkpt>
      <trkpt lat="44.56449" lon="5.9451">
        <ele>902.6</ele>
        <time>2026-08-30T09:56:10Z</time>
      </trkpt>
      <trkpt lat="44.56447" lon="5.94513">
        <ele>902.6</ele>
        <time>2026-08-30T09:56:23Z</time>
      </trkpt>
      <trkpt lat="44.56441" lon="5.94523">
        <ele>902.2</ele>
        <time>2026-08-30T09:56:41Z</time>
      </trkpt>
      <trkpt lat="44.56432" lon="5.94539">
        <ele>902</ele>
        <time>2026-08-30T09:56:57Z</time>
      </trkpt>
      <trkpt lat="44.56431" lon="5.94541">
        <ele>902</ele>
        <time>2026-08-30T09:56:58Z</time>
      </trkpt>
      <trkpt lat="44.56421" lon="5.94554">
        <ele>901.8</ele>
        <time>2026-08-30T09:57:14Z</time>
      </trkpt>
      <trkpt lat="44.56419" lon="5.9456">
        <ele>901.6</ele>
        <time>2026-08-30T09:57:26Z</time>
      </trkpt>
      <trkpt lat="44.56409" lon="5.94574">
        <ele>901.4</ele>
        <time>2026-08-30T09:57:40Z</time>
      </trkpt>
      <trkpt lat="44.56404" lon="5.94585">
        <ele>901</ele>
        <time>2026-08-30T09:57:50Z</time>
      </trkpt>
      <trkpt lat="44.56399" lon="5.94599">
        <ele>900.8</ele>
        <time>2026-08-30T09:58:00Z</time>
      </trkpt>
      <trkpt lat="44.56394" lon="5.94614">
        <ele>900.8</ele>
        <time>2026-08-30T09:58:12Z</time>
      </trkpt>
      <trkpt lat="44.56391" lon="5.94633">
        <ele>900.8</ele>
        <time>2026-08-30T09:58:25Z</time>
      </trkpt>
      <trkpt lat="44.56391" lon="5.94641">
        <ele>901</ele>
        <time>2026-08-30T09:58:38Z</time>
      </trkpt>
      <trkpt lat="44.56391" lon="5.94644">
        <ele>901</ele>
        <time>2026-08-30T09:58:40Z</time>
      </trkpt>
      <trkpt lat="44.5639" lon="5.94645">
        <ele>901</ele>
        <time>2026-08-30T09:58:41Z</time>
      </trkpt>
      <trkpt lat="44.56391" lon="5.94663">
        <ele>900.8</ele>
        <time>2026-08-30T09:58:52Z</time>
      </trkpt>
      <trkpt lat="44.56392" lon="5.94681">
        <ele>901</ele>
        <time>2026-08-30T09:59:03Z</time>
      </trkpt>
      <trkpt lat="44.56392" lon="5.947">
        <ele>901</ele>
        <time>2026-08-30T09:59:14Z</time>
      </trkpt>
      <trkpt lat="44.56392" lon="5.94721">
        <ele>901.2</ele>
        <time>2026-08-30T09:59:28Z</time>
      </trkpt>
      <trkpt lat="44.56392" lon="5.94739">
        <ele>901.4</ele>
        <time>2026-08-30T09:59:40Z</time>
      </trkpt>
      <trkpt lat="44.56391" lon="5.94756">
        <ele>901.6</ele>
        <time>2026-08-30T09:59:51Z</time>
      </trkpt>
      <trkpt lat="44.56391" lon="5.94764">
        <ele>901.6</ele>
        <time>2026-08-30T09:59:57Z</time>
      </trkpt>
      <trkpt lat="44.5639" lon="5.9478">
        <ele>901.8</ele>
        <time>2026-08-30T10:00:08Z</time>
      </trkpt>
      <trkpt lat="44.56388" lon="5.948">
        <ele>902.2</ele>
        <time>2026-08-30T10:00:21Z</time>
      </trkpt>
      <trkpt lat="44.56388" lon="5.94816">
        <ele>902.4</ele>
        <time>2026-08-30T10:00:32Z</time>
      </trkpt>
      <trkpt lat="44.56388" lon="5.94822">
        <ele>902.6</ele>
        <time>2026-08-30T10:00:36Z</time>
      </trkpt>
      <trkpt lat="44.56388" lon="5.94824">
        <ele>902.6</ele>
        <time>2026-08-30T10:00:37Z</time>
      </trkpt>
      <trkpt lat="44.56389" lon="5.94841">
        <ele>903.2</ele>
        <time>2026-08-30T10:00:49Z</time>
      </trkpt>
      <trkpt lat="44.56389" lon="5.94842">
        <ele>903.2</ele>
        <time>2026-08-30T10:00:50Z</time>
      </trkpt>
      <trkpt lat="44.56388" lon="5.9486">
        <ele>903.4</ele>
        <time>2026-08-30T10:01:01Z</time>
      </trkpt>
      <trkpt lat="44.56388" lon="5.94861">
        <ele>903.4</ele>
        <time>2026-08-30T10:01:02Z</time>
      </trkpt>
      <trkpt lat="44.56388" lon="5.9488">
        <ele>903.2</ele>
        <time>2026-08-30T10:01:13Z</time>
      </trkpt>
      <trkpt lat="44.56388" lon="5.949">
        <ele>903.2</ele>
        <time>2026-08-30T10:01:25Z</time>
      </trkpt>
      <trkpt lat="44.5639" lon="5.94917">
        <ele>903.2</ele>
        <time>2026-08-30T10:01:35Z</time>
      </trkpt>
      <trkpt lat="44.56391" lon="5.94936">
        <ele>903.2</ele>
        <time>2026-08-30T10:01:47Z</time>
      </trkpt>
      <trkpt lat="44.56393" lon="5.94947">
        <ele>903</ele>
        <time>2026-08-30T10:01:55Z</time>
      </trkpt>
      <trkpt lat="44.56393" lon="5.94962">
        <ele>903.2</ele>
        <time>2026-08-30T10:02:05Z</time>
      </trkpt>
      <trkpt lat="44.56394" lon="5.9498">
        <ele>903.4</ele>
        <time>2026-08-30T10:02:16Z</time>
      </trkpt>
      <trkpt lat="44.56395" lon="5.95002">
        <ele>903.4</ele>
        <time>2026-08-30T10:02:30Z</time>
      </trkpt>
      <trkpt lat="44.56394" lon="5.95017">
        <ele>903.6</ele>
        <time>2026-08-30T10:02:41Z</time>
      </trkpt>
      <trkpt lat="44.56392" lon="5.95032">
        <ele>927.6</ele>
        <time>2026-08-30T10:02:51Z</time>
      </trkpt>
      <trkpt lat="44.56389" lon="5.95049">
        <ele>927.8</ele>
        <time>2026-08-30T10:03:03Z</time>
      </trkpt>
      <trkpt lat="44.56385" lon="5.95061">
        <ele>928</ele>
      </trkpt>
      <trkpt lat="44.56381" lon="5.95066">
        <ele>904.8</ele>
        <time>2026-08-30T10:03:15Z</time>
      </trkpt>
      <trkpt lat="44.56369" lon="5.9507">
        <ele>927.4</ele>
        <time>2026-08-30T10:03:25Z</time>
      </trkpt>
      <trkpt lat="44.56358" lon="5.95075">
        <ele>926.9</ele>
        <time>2026-08-30T10:03:36Z</time>
      </trkpt>
      <trkpt lat="44.56348" lon="5.9508">
        <ele>926.5</ele>
        <time>2026-08-30T10:03:45Z</time>
      </trkpt>
      <trkpt lat="44.56345" lon="5.95083">
        <ele>926.4</ele>
      </trkpt>
      <trkpt lat="44.56343" lon="5.95088">
        <ele>926.4</ele>
      </trkpt>
      <trkpt lat="44.56344" lon="5.95097">
        <ele>926.4</ele>
        <time>2026-08-30T10:03:56Z</time>
      </trkpt>
      <trkpt lat="44.56345" lon="5.95116">
        <ele>926.4</ele>
        <time>2026-08-30T10:04:08Z</time>
      </trkpt>
      <trkpt lat="44.56347" lon="5.95134">
        <ele>926.5</ele>
        <time>2026-08-30T10:04:20Z</time>
      </trkpt>
      <trkpt lat="44.56348" lon="5.95152">
        <ele>926.5</ele>
        <time>2026-08-30T10:04:31Z</time>
      </trkpt>
      <trkpt lat="44.56349" lon="5.95168">
        <ele>905</ele>
        <time>2026-08-30T10:04:41Z</time>
      </trkpt>
      <trkpt lat="44.5635" lon="5.95187">
        <ele>905</ele>
        <time>2026-08-30T10:04:53Z</time>
      </trkpt>
      <trkpt lat="44.56351" lon="5.95206">
        <ele>905.2</ele>
        <time>2026-08-30T10:05:05Z</time>
      </trkpt>
      <trkpt lat="44.56352" lon="5.95222">
        <ele>927</ele>
        <time>2026-08-30T10:05:15Z</time>
      </trkpt>
      <trkpt lat="44.56353" lon="5.95239">
        <ele>928</ele>
        <time>2026-08-30T10:05:25Z</time>
      </trkpt>
      <trkpt lat="44.56354" lon="5.95257">
        <ele>929</ele>
        <time>2026-08-30T10:05:36Z</time>
      </trkpt>
      <trkpt lat="44.56354" lon="5.95272">
        <ele>929.8</ele>
        <time>2026-08-30T10:05:47Z</time>
      </trkpt>
      <trkpt lat="44.56356" lon="5.953">
        <ele>931.5</ele>
        <time>2026-08-30T10:06:14Z</time>
      </trkpt>
      <trkpt lat="44.56357" lon="5.95318">
        <ele>931.9</ele>
        <time>2026-08-30T10:06:25Z</time>
      </trkpt>
      <trkpt lat="44.56358" lon="5.95334">
        <ele>932</ele>
        <time>2026-08-30T10:06:35Z</time>
      </trkpt>
      <trkpt lat="44.56359" lon="5.95355">
        <ele>932.7</ele>
        <time>2026-08-30T10:06:44Z</time>
      </trkpt>
      <trkpt lat="44.5636" lon="5.95366">
        <ele>933</ele>
        <time>2026-08-30T10:06:54Z</time>
      </trkpt>
      <trkpt lat="44.56361" lon="5.95378">
        <ele>933</ele>
        <time>2026-08-30T10:07:06Z</time>
      </trkpt>
      <trkpt lat="44.56361" lon="5.95382">
        <ele>933</ele>
      </trkpt>
      <trkpt lat="44.56362" lon="5.95398">
        <ele>933</ele>
        <time>2026-08-30T10:07:17Z</time>
      </trkpt>
      <trkpt lat="44.56363" lon="5.95414">
        <ele>933.1</ele>
        <time>2026-08-30T10:07:29Z</time>
      </trkpt>
      <trkpt lat="44.56365" lon="5.95433">
        <ele>908</ele>
        <time>2026-08-30T10:07:41Z</time>
      </trkpt>
      <trkpt lat="44.56366" lon="5.9545">
        <ele>908.4</ele>
        <time>2026-08-30T10:07:52Z</time>
      </trkpt>
      <trkpt lat="44.56366" lon="5.95458">
        <ele>908.4</ele>
        <time>2026-08-30T10:07:58Z</time>
      </trkpt>
      <trkpt lat="44.56366" lon="5.95465">
        <ele>908.4</ele>
        <time>2026-08-30T10:08:03Z</time>
      </trkpt>
      <trkpt lat="44.56367" lon="5.95481">
        <ele>908.8</ele>
        <time>2026-08-30T10:08:14Z</time>
      </trkpt>
      <trkpt lat="44.56368" lon="5.955">
        <ele>909</ele>
        <time>2026-08-30T10:08:26Z</time>
      </trkpt>
      <trkpt lat="44.56369" lon="5.95514">
        <ele>909.2</ele>
        <time>2026-08-30T10:08:35Z</time>
      </trkpt>
      <trkpt lat="44.5637" lon="5.95531">
        <ele>909.8</ele>
        <time>2026-08-30T10:08:47Z</time>
      </trkpt>
      <trkpt lat="44.56372" lon="5.95548">
        <ele>910.4</ele>
        <time>2026-08-30T10:08:58Z</time>
      </trkpt>
      <trkpt lat="44.56373" lon="5.95564">
        <ele>910.8</ele>
        <time>2026-08-30T10:09:08Z</time>
      </trkpt>
      <trkpt lat="44.56374" lon="5.95579">
        <ele>911.2</ele>
        <time>2026-08-30T10:09:18Z</time>
      </trkpt>
      <trkpt lat="44.56375" lon="5.95594">
        <ele>937.4</ele>
        <time>2026-08-30T10:09:31Z</time>
      </trkpt>
      <trkpt lat="44.56376" lon="5.95609">
        <ele>937.9</ele>
        <time>2026-08-30T10:09:41Z</time>
      </trkpt>
      <trkpt lat="44.56377" lon="5.95617">
        <ele>912.4</ele>
        <time>2026-08-30T10:10:03Z</time>
      </trkpt>
      <trkpt lat="44.56377" lon="5.9562">
        <ele>912.4</ele>
        <time>2026-08-30T10:10:05Z</time>
      </trkpt>
      <trkpt lat="44.56379" lon="5.95636">
        <ele>912.6</ele>
        <time>2026-08-30T10:10:16Z</time>
      </trkpt>
      <trkpt lat="44.56381" lon="5.95655">
        <ele>939.3</ele>
        <time>2026-08-30T10:10:28Z</time>
      </trkpt>
      <trkpt lat="44.56383" lon="5.95667">
        <ele>913.4</ele>
        <time>2026-08-30T10:10:38Z</time>
      </trkpt>
      <trkpt lat="44.56384" lon="5.95681">
        <ele>913.8</ele>
        <time>2026-08-30T10:10:48Z</time>
      </trkpt>
      <trkpt lat="44.56385" lon="5.95695">
        <ele>914.2</ele>
        <time>2026-08-30T10:10:58Z</time>
      </trkpt>
      <trkpt lat="44.56382" lon="5.95709">
        <ele>914.6</ele>
        <time>2026-08-30T10:11:08Z</time>
      </trkpt>
      <trkpt lat="44.56381" lon="5.9571">
        <ele>914.6</ele>
        <time>2026-08-30T10:11:09Z</time>
      </trkpt>
      <trkpt lat="44.5638" lon="5.95711">
        <ele>914.8</ele>
        <time>2026-08-30T10:11:10Z</time>
      </trkpt>
      <trkpt lat="44.56371" lon="5.95717">
        <ele>914.8</ele>
        <time>2026-08-30T10:11:20Z</time>
      </trkpt>
      <trkpt lat="44.5636" lon="5.9572">
        <ele>914.6</ele>
        <time>2026-08-30T10:11:30Z</time>
      </trkpt>
      <trkpt lat="44.5635" lon="5.95722">
        <ele>914.4</ele>
        <time>2026-08-30T10:11:40Z</time>
      </trkpt>
      <trkpt lat="44.56347" lon="5.95723">
        <ele>914.2</ele>
        <time>2026-08-30T10:11:43Z</time>
      </trkpt>
      <trkpt lat="44.56345" lon="5.95723">
        <ele>914.2</ele>
        <time>2026-08-30T10:11:44Z</time>
      </trkpt>
      <trkpt lat="44.56333" lon="5.95724">
        <ele>913.8</ele>
        <time>2026-08-30T10:11:55Z</time>
      </trkpt>
      <trkpt lat="44.56319" lon="5.95726">
        <ele>913.6</ele>
        <time>2026-08-30T10:12:07Z</time>
      </trkpt>
      <trkpt lat="44.56307" lon="5.95729">
        <ele>913.2</ele>
        <time>2026-08-30T10:12:18Z</time>
      </trkpt>
      <trkpt lat="44.56296" lon="5.95729">
        <ele>912.8</ele>
        <time>2026-08-30T10:12:29Z</time>
      </trkpt>
      <trkpt lat="44.56285" lon="5.95728">
        <ele>912.6</ele>
        <time>2026-08-30T10:12:39Z</time>
      </trkpt>
      <trkpt lat="44.56276" lon="5.95724">
        <ele>912.2</ele>
        <time>2026-08-30T10:12:48Z</time>
      </trkpt>
      <trkpt lat="44.56275" lon="5.9572">
        <ele>912</ele>
        <time>2026-08-30T10:12:57Z</time>
      </trkpt>
      <trkpt lat="44.56267" lon="5.95717">
        <ele>911.8</ele>
        <time>2026-08-30T10:13:09Z</time>
      </trkpt>
      <trkpt lat="44.5626" lon="5.95717">
        <ele>911.6</ele>
        <time>2026-08-30T10:13:22Z</time>
      </trkpt>
      <trkpt lat="44.56258" lon="5.95719">
        <ele>911.4</ele>
        <time>2026-08-30T10:13:38Z</time>
      </trkpt>
      <trkpt lat="44.56255" lon="5.95712">
        <ele>911.4</ele>
        <time>2026-08-30T10:13:52Z</time>
      </trkpt>
      <trkpt lat="44.56252" lon="5.95708">
        <ele>911</ele>
        <time>2026-08-30T10:14:06Z</time>
      </trkpt>
      <trkpt lat="44.56252" lon="5.95708">
        <ele>911</ele>
        <time>2026-08-30T10:14:22Z</time>
      </trkpt>
      <trkpt lat="44.5625" lon="5.95709">
        <ele>910.8</ele>
        <time>2026-08-30T10:14:34Z</time>
      </trkpt>
      <trkpt lat="44.5625" lon="5.95707">
        <ele>910.6</ele>
        <time>2026-08-30T10:14:54Z</time>
      </trkpt>
      <trkpt lat="44.56251" lon="5.95707">
        <ele>910.4</ele>
        <time>2026-08-30T10:15:23Z</time>
      </trkpt>
      <trkpt lat="44.56249" lon="5.95707">
        <ele>910.2</ele>
        <time>2026-08-30T10:15:48Z</time>
      </trkpt>
      <trkpt lat="44.56249" lon="5.95706">
        <ele>910.2</ele>
        <time>2026-08-30T10:16:07Z</time>
      </trkpt>
      <trkpt lat="44.56246" lon="5.95699">
        <ele>910</ele>
        <time>2026-08-30T10:16:32Z</time>
      </trkpt>
      <trkpt lat="44.56242" lon="5.95697">
        <ele>910</ele>
        <time>2026-08-30T10:16:57Z</time>
      </trkpt>
      <trkpt lat="44.56241" lon="5.95694">
        <ele>910</ele>
        <time>2026-08-30T10:17:24Z</time>
      </trkpt>
      <trkpt lat="44.56241" lon="5.95694">
        <ele>909.6</ele>
        <time>2026-08-30T10:17:52Z</time>
      </trkpt>
      <trkpt lat="44.5624" lon="5.95695">
        <ele>909.6</ele>
        <time>2026-08-30T10:18:39Z</time>
      </trkpt>
      <trkpt lat="44.56239" lon="5.95694">
        <ele>909.4</ele>
        <time>2026-08-30T10:19:23Z</time>
      </trkpt>
      <trkpt lat="44.5624" lon="5.95695">
        <ele>909.4</ele>
        <time>2026-08-30T10:20:11Z</time>
      </trkpt>
      <trkpt lat="44.56241" lon="5.95697">
        <ele>909.2</ele>
        <time>2026-08-30T10:20:56Z</time>
      </trkpt>
      <trkpt lat="44.56241" lon="5.95697">
        <ele>909.2</ele>
        <time>2026-08-30T10:21:43Z</time>
      </trkpt>
      <trkpt lat="44.56243" lon="5.957">
        <ele>909</ele>
        <time>2026-08-30T10:22:43Z</time>
      </trkpt>
      <trkpt lat="44.56245" lon="5.95708">
        <ele>909</ele>
        <time>2026-08-30T10:23:01Z</time>
      </trkpt>
      <trkpt lat="44.56247" lon="5.95713">
        <ele>909.2</ele>
        <time>2026-08-30T10:23:12Z</time>
      </trkpt>
      <trkpt lat="44.56249" lon="5.95711">
        <ele>909</ele>
        <time>2026-08-30T10:23:28Z</time>
      </trkpt>
      <trkpt lat="44.56248" lon="5.95711">
        <ele>909</ele>
        <time>2026-08-30T10:24:01Z</time>
      </trkpt>
      <trkpt lat="44.56248" lon="5.95712">
        <ele>908.8</ele>
        <time>2026-08-30T10:24:54Z</time>
      </trkpt>
      <trkpt lat="44.56248" lon="5.95711">
        <ele>908.6</ele>
        <time>2026-08-30T10:25:53Z</time>
      </trkpt>
      <trkpt lat="44.56248" lon="5.95713">
        <ele>908.4</ele>
        <time>2026-08-30T10:27:01Z</time>
      </trkpt>
      <trkpt lat="44.56254" lon="5.95714">
        <ele>908.2</ele>
        <time>2026-08-30T10:27:55Z</time>
      </trkpt>
      <trkpt lat="44.56262" lon="5.95713">
        <ele>908.2</ele>
        <time>2026-08-30T10:28:05Z</time>
      </trkpt>
      <trkpt lat="44.56269" lon="5.9571">
        <ele>908.4</ele>
        <time>2026-08-30T10:28:12Z</time>
      </trkpt>
      <trkpt lat="44.56276" lon="5.95707">
        <ele>908.4</ele>
        <time>2026-08-30T10:28:22Z</time>
      </trkpt>
      <trkpt lat="44.56278" lon="5.95706">
        <ele>908.4</ele>
        <time>2026-08-30T10:28:24Z</time>
      </trkpt>
      <trkpt lat="44.56279" lon="5.95704">
        <ele>908.4</ele>
        <time>2026-08-30T10:28:25Z</time>
      </trkpt>
      <trkpt lat="44.56281" lon="5.95698">
        <ele>908.4</ele>
        <time>2026-08-30T10:28:30Z</time>
      </trkpt>
      <trkpt lat="44.56282" lon="5.95686">
        <ele>908.2</ele>
        <time>2026-08-30T10:28:38Z</time>
      </trkpt>
      <trkpt lat="44.56282" lon="5.95675">
        <ele>908</ele>
        <time>2026-08-30T10:28:45Z</time>
      </trkpt>
      <trkpt lat="44.56282" lon="5.95662">
        <ele>907.8</ele>
        <time>2026-08-30T10:28:54Z</time>
      </trkpt>
      <trkpt lat="44.56281" lon="5.95648">
        <ele>936.4</ele>
        <time>2026-08-30T10:29:05Z</time>
      </trkpt>
      <trkpt lat="44.5628" lon="5.95631">
        <ele>936.1</ele>
        <time>2026-08-30T10:29:16Z</time>
      </trkpt>
      <trkpt lat="44.5628" lon="5.95617">
        <ele>936</ele>
        <time>2026-08-30T10:29:26Z</time>
      </trkpt>
      <trkpt lat="44.56279" lon="5.956">
        <ele>906.6</ele>
        <time>2026-08-30T10:29:37Z</time>
      </trkpt>
      <trkpt lat="44.56278" lon="5.95586">
        <ele>936</ele>
        <time>2026-08-30T10:29:54Z</time>
      </trkpt>
      <trkpt lat="44.56278" lon="5.9558">
        <ele>935.9</ele>
        <time>2026-08-30T10:29:58Z</time>
      </trkpt>
      <trkpt lat="44.56277" lon="5.95568">
        <ele>935.4</ele>
        <time>2026-08-30T10:30:09Z</time>
      </trkpt>
      <trkpt lat="44.56277" lon="5.95557">
        <ele>935</ele>
        <time>2026-08-30T10:30:16Z</time>
      </trkpt>
      <trkpt lat="44.56276" lon="5.9554">
        <ele>934.4</ele>
        <time>2026-08-30T10:30:36Z</time>
      </trkpt>
      <trkpt lat="44.56275" lon="5.95521">
        <ele>933.8</ele>
        <time>2026-08-30T10:30:48Z</time>
      </trkpt>
      <trkpt lat="44.56274" lon="5.95495">
        <ele>932.8</ele>
        <time>2026-08-30T10:31:17Z</time>
      </trkpt>
      <trkpt lat="44.56273" lon="5.9547">
        <ele>932</ele>
        <time>2026-08-30T10:31:28Z</time>
      </trkpt>
      <trkpt lat="44.56272" lon="5.95451">
        <ele>932</ele>
        <time>2026-08-30T10:31:38Z</time>
      </trkpt>
      <trkpt lat="44.56272" lon="5.95437">
        <ele>931.7</ele>
        <time>2026-08-30T10:31:49Z</time>
      </trkpt>
      <trkpt lat="44.56271" lon="5.9542">
        <ele>931.1</ele>
        <time>2026-08-30T10:32:00Z</time>
      </trkpt>
      <trkpt lat="44.56271" lon="5.95404">
        <ele>931.5</ele>
        <time>2026-08-30T10:32:07Z</time>
      </trkpt>
      <trkpt lat="44.56271" lon="5.95391">
        <ele>931.9</ele>
        <time>2026-08-30T10:32:12Z</time>
      </trkpt>
      <trkpt lat="44.5627" lon="5.95376">
        <ele>932</ele>
        <time>2026-08-30T10:32:23Z</time>
      </trkpt>
      <trkpt lat="44.5627" lon="5.95369">
        <ele>932</ele>
        <time>2026-08-30T10:32:31Z</time>
      </trkpt>
      <trkpt lat="44.5627" lon="5.95356">
        <ele>932</ele>
        <time>2026-08-30T10:32:44Z</time>
      </trkpt>
      <trkpt lat="44.56269" lon="5.95345">
        <ele>932</ele>
        <time>2026-08-30T10:32:51Z</time>
      </trkpt>
      <trkpt lat="44.56269" lon="5.95337">
        <ele>932</ele>
        <time>2026-08-30T10:32:53Z</time>
      </trkpt>
      <trkpt lat="44.56268" lon="5.95332">
        <ele>932</ele>
        <time>2026-08-30T10:32:57Z</time>
      </trkpt>
      <trkpt lat="44.56268" lon="5.95325">
        <ele>931.7</ele>
        <time>2026-08-30T10:33:00Z</time>
      </trkpt>
      <trkpt lat="44.56267" lon="5.95304">
        <ele>931</ele>
        <time>2026-08-30T10:33:12Z</time>
      </trkpt>
      <trkpt lat="44.56267" lon="5.95288">
        <ele>930.4</ele>
        <time>2026-08-30T10:33:22Z</time>
      </trkpt>
      <trkpt lat="44.56267" lon="5.95277">
        <ele>930</ele>
        <time>2026-08-30T10:33:28Z</time>
      </trkpt>
      <trkpt lat="44.56266" lon="5.95263">
        <ele>929.7</ele>
        <time>2026-08-30T10:33:36Z</time>
      </trkpt>
      <trkpt lat="44.56266" lon="5.95249">
        <ele>929.4</ele>
        <time>2026-08-30T10:33:46Z</time>
      </trkpt>
      <trkpt lat="44.56266" lon="5.9524">
        <ele>929.1</ele>
        <time>2026-08-30T10:33:57Z</time>
      </trkpt>
      <trkpt lat="44.56265" lon="5.95231">
        <ele>928.7</ele>
        <time>2026-08-30T10:34:06Z</time>
      </trkpt>
      <trkpt lat="44.56265" lon="5.95223">
        <ele>900.6</ele>
        <time>2026-08-30T10:34:16Z</time>
      </trkpt>
      <trkpt lat="44.56265" lon="5.95219">
        <ele>900.6</ele>
        <time>2026-08-30T10:34:18Z</time>
      </trkpt>
      <trkpt lat="44.56265" lon="5.95207">
        <ele>900.4</ele>
        <time>2026-08-30T10:34:29Z</time>
      </trkpt>
      <trkpt lat="44.56265" lon="5.952">
        <ele>900</ele>
        <time>2026-08-30T10:34:39Z</time>
      </trkpt>
      <trkpt lat="44.56265" lon="5.95189">
        <ele>928</ele>
        <time>2026-08-30T10:34:41Z</time>
      </trkpt>
    </trkseg>
  </trk>
</gpx>